Ветютнев

Карта отелей и гостиниц, располагающихся рядом с аэропортом Ветютнев :

Ветютнев Волгоградская область 49° 45' 13.2012" N, 43° 32' 7.5012" E
Ветютнев Волгоградская область 49° 45' 13.2012" N, 43° 32' 7.5012" E
Код аэродрома ИКАО
ZF40
Код аэродрома RU
ЗФ40
Координаты
N49.75367° E043.53542°
Превышение над уровнем моря
115
Основная полоса
14/32
Курс магнитный
138/318
Длина основной ВПП
410
Ширина основной ВПП
26
Покрытие основной ВПП
Нетвёрдое (грунт)
Освещение ВПП
Нет
Тип: 
Аэродром
Класс аэродрома: 
Принадлежность: 
ГА
Статус: 
Действующий
Сайт: 
E-mail аэродрома: 
Страна: 
Россия
Регион: 
Волгоградская область
Город: 
Дополнительная информация: 
Площадка АХР, в ВЛП ведутся АХР по обработке сельхозугодий и ГЛФ, посадка легких ВС возможна.

Найти трансфер

С помощью этой формы Вы можете найти трансфер из аэропорта Ветютнев в город, аэропорт или вокзал:

Карта места

Javascript is required to view this map.

Погода в аэропортах:

Авиационная погода в Братске

Регион: 
Погода METAR: 
UIBB 050800Z 31002MPS 1800 R30/1800N FU BKN027CB 21/14 Q1004 R30/CLRD60 NOSIG RMK QFE711/0948
Время наблюдения
2021-08-05T08:00:00Z
Температура C
21.0
Точка росы
14.0
Направление ветра
310
Скорость ветра (узлы)
4
Метео видимость
1.12
Явления погоды
FU
Условия полета
IFR
Аэропорт подробнее: 

Авиационная погода в аэропорту Новый

Регион: 
Погода METAR: 
UHHH 050800Z 05002MPS 010V090 9999 -SHRA VCTS SCT033CB 22/21 Q1002 R23R/290045 TEMPO 3100 -TSRA RMK QFE745/0994
Время наблюдения
2021-08-05T08:00:00Z
Температура C
22.0
Точка росы
21.0
Направление ветра
50
Скорость ветра (узлы)
4
Метео видимость
6.21
Явления погоды
-SHRA VCTS
Условия полета
VFR
Аэропорт подробнее: 

Авиационная погода в аэропорту Алыкель

Регион: 
Погода METAR: 
UOOO 050800Z 02004MPS 1000 R01/1000N FU SCT024 19/14 Q1015 R01/CLRD60 NOSIG RMK QFE747/0996
Время наблюдения
2021-08-05T08:00:00Z
Температура C
19.0
Точка росы
14.0
Направление ветра
20
Скорость ветра (узлы)
8
Метео видимость
0.62
Явления погоды
FU
Условия полета
LIFR
Аэропорт подробнее: 

Авиационная погода в Архангельске

Регион: 
Погода METAR: 
ULAA 050800Z 29005MPS 250V330 9999 -SHRA BKN014CB 12/10 Q1014 R26/290060 NOSIG RMK QFE759/1012
Время наблюдения
2021-08-05T08:00:00Z
Температура C
12.0
Точка росы
10.0
Направление ветра
290
Скорость ветра (узлы)
10
Метео видимость
6.21
Явления погоды
-SHRA
Условия полета
MVFR
Аэропорт подробнее: